createdAt,value
2023-05-19T00:02:25.211Z,9.28
2023-05-19T00:07:30.020Z,9.13
2023-05-19T00:12:31.462Z,9.08
2023-05-19T00:17:33.670Z,9.09
2023-05-19T00:22:36.168Z,9.12
2023-05-19T00:27:37.002Z,9.02
2023-05-19T00:32:38.060Z,8.94
2023-05-19T00:37:38.931Z,8.94
2023-05-19T00:42:40.750Z,8.88
2023-05-19T00:47:45.123Z,8.84
2023-05-19T00:52:46.192Z,8.73
2023-05-19T00:57:49.014Z,8.64
2023-05-19T01:02:50.462Z,8.65
2023-05-19T01:07:52.873Z,8.53
2023-05-19T01:12:53.687Z,8.63
2023-05-19T01:18:11.014Z,8.65
2023-05-19T01:24:54.202Z,8.53
2023-05-19T01:30:24.879Z,8.54
2023-05-19T01:35:27.839Z,8.52
2023-05-19T01:40:30.366Z,8.39
2023-05-19T01:45:32.879Z,8.25
2023-05-19T01:50:34.036Z,8.20
2023-05-19T01:55:43.214Z,8.27
2023-05-19T02:01:02.443Z,8.37
2023-05-19T02:08:09.553Z,8.14
2023-05-19T02:13:13.740Z,7.95
2023-05-19T02:18:17.134Z,7.81
2023-05-19T02:23:18.540Z,7.96
2023-05-19T02:28:19.458Z,7.97
2023-05-19T02:33:23.763Z,7.91
2023-05-19T02:38:25.020Z,8.08
2023-05-19T02:43:29.720Z,7.89
2023-05-19T02:48:30.658Z,7.51
2023-05-19T02:53:31.514Z,7.42
2023-05-19T02:58:32.354Z,7.48
2023-05-19T03:03:33.381Z,7.41
2023-05-19T03:08:35.455Z,7.53
2023-05-19T03:13:36.279Z,7.74
2023-05-19T03:18:37.706Z,7.76
2023-05-19T03:23:38.614Z,7.74
2023-05-19T03:28:39.640Z,7.75
2023-05-19T03:33:40.467Z,7.59
2023-05-19T03:38:41.542Z,7.36
2023-05-19T03:43:42.598Z,7.17
2023-05-19T03:48:44.357Z,7.11
2023-05-19T03:54:38.113Z,7.15
2023-05-19T03:59:40.570Z,6.95
2023-05-19T04:04:41.401Z,7.05
2023-05-19T04:09:42.505Z,7.01
2023-05-19T04:14:43.479Z,6.93
2023-05-19T04:19:44.346Z,6.91
2023-05-19T04:24:45.657Z,7.08
2023-05-19T04:29:47.552Z,7.32
2023-05-19T04:34:48.424Z,7.57
2023-05-19T04:39:54.773Z,7.84
2023-05-19T04:44:57.430Z,8.03
2023-05-19T04:50:03.341Z,8.20
2023-05-19T04:55:05.010Z,8.34
2023-05-19T05:00:12.014Z,8.71
2023-05-19T05:05:20.338Z,8.91
2023-05-19T05:10:21.324Z,9.24
2023-05-19T05:15:23.597Z,9.49
2023-05-19T05:20:25.854Z,9.66
2023-05-19T05:25:27.650Z,9.87
2023-05-19T05:30:28.726Z,9.90
2023-05-19T05:35:31.174Z,9.77
2023-05-19T05:40:32.606Z,10.02
2023-05-19T05:45:33.899Z,10.19
2023-05-19T05:50:36.410Z,10.44
2023-05-19T05:55:38.807Z,10.81
2023-05-19T06:00:42.843Z,11.11
2023-05-19T06:05:43.885Z,11.06
2023-05-19T06:10:47.379Z,10.99
2023-05-19T06:15:50.204Z,11.46
2023-05-19T06:20:56.076Z,11.24
2023-05-19T06:25:57.111Z,11.26
2023-05-19T06:30:59.304Z,11.85
2023-05-19T06:41:31.312Z,12.09
2023-05-19T06:46:32.573Z,12.23
2023-05-19T06:51:34.678Z,12.20
2023-05-19T06:56:35.901Z,11.93
2023-05-19T07:01:37.271Z,12.16
2023-05-19T07:06:38.584Z,12.13
2023-05-19T07:11:40.810Z,11.85
2023-05-19T07:16:42.944Z,12.20
2023-05-19T07:21:43.951Z,12.41
2023-05-19T07:26:44.874Z,12.64
2023-05-19T07:31:45.863Z,12.28
2023-05-19T07:36:46.715Z,12.26
2023-05-19T07:41:53.737Z,12.57
2023-05-19T07:46:54.754Z,13.23
2023-05-19T07:51:56.553Z,13.25
2023-05-19T07:56:57.347Z,12.64
2023-05-19T08:01:58.329Z,13.18
2023-05-19T08:06:59.217Z,13.34
2023-05-19T08:12:01.008Z,13.53
2023-05-19T08:17:01.802Z,13.56
2023-05-19T08:22:03.008Z,13.16
2023-05-19T08:27:04.211Z,13.66
2023-05-19T08:32:05.236Z,14.27
2023-05-19T08:37:06.955Z,14.49
2023-05-19T08:42:09.181Z,14.03
2023-05-19T08:47:13.060Z,13.87
2023-05-19T08:53:47.847Z,13.84
2023-05-19T08:58:50.411Z,14.28
2023-05-19T09:03:51.694Z,14.41
2023-05-19T09:08:52.638Z,14.20
2023-05-19T09:13:53.628Z,14.15
2023-05-19T09:18:56.091Z,14.09
2023-05-19T09:24:04.223Z,14.54
2023-05-19T09:29:17.415Z,14.26
2023-05-19T09:34:18.635Z,14.23
2023-05-19T09:39:21.935Z,15.13
2023-05-19T09:44:28.454Z,15.03
2023-05-19T09:49:30.474Z,15.04
2023-05-19T09:54:33.420Z,14.76
2023-05-19T09:59:34.953Z,14.81
2023-05-19T10:04:36.252Z,15.65
2023-05-19T10:09:38.560Z,15.81
2023-05-19T10:14:40.053Z,15.79
2023-05-19T10:19:43.071Z,16.46
2023-05-19T10:24:43.984Z,17.22
2023-05-19T10:29:49.063Z,16.54
2023-05-19T10:35:15.807Z,15.98
2023-05-19T10:40:25.500Z,15.51
2023-05-19T10:45:30.434Z,15.63
2023-05-19T10:50:37.292Z,17.23
2023-05-19T10:55:46.941Z,17.29
2023-05-19T11:00:59.901Z,17.23
2023-05-19T11:07:52.324Z,17.47
2023-05-19T11:12:58.197Z,17.73
2023-05-19T11:18:01.193Z,17.33
2023-05-19T11:23:06.799Z,16.41
2023-05-19T11:28:09.494Z,16.48
2023-05-19T11:33:10.938Z,16.44
2023-05-19T11:38:13.297Z,16.55
2023-05-19T11:43:14.295Z,16.51
2023-05-19T11:48:16.623Z,16.59
2023-05-19T11:53:18.782Z,16.78
2023-05-19T11:58:26.369Z,16.99
2023-05-19T12:03:27.848Z,17.43
2023-05-19T12:08:29.125Z,17.78
2023-05-19T12:13:29.978Z,18.19
2023-05-19T12:18:36.619Z,18.03
2023-05-19T12:23:38.332Z,17.38
2023-05-19T12:28:39.176Z,16.70
2023-05-19T12:33:40.948Z,16.87
2023-05-19T12:38:42.420Z,16.58
2023-05-19T12:43:43.235Z,17.07
2023-05-19T12:48:45.174Z,17.09
2023-05-19T12:53:46.694Z,17.51
2023-05-19T12:58:53.795Z,17.18
2023-05-19T13:03:55.014Z,16.80
2023-05-19T13:08:56.328Z,16.87
2023-05-19T13:13:57.377Z,16.31
2023-05-19T13:18:59.380Z,16.39
2023-05-19T13:24:00.328Z,16.89
2023-05-19T13:29:02.217Z,16.99
2023-05-19T13:34:03.114Z,16.59
2023-05-19T13:39:04.011Z,16.79
2023-05-19T13:44:05.199Z,17.14
2023-05-19T13:49:06.490Z,16.66
2023-05-19T13:54:07.381Z,16.69
2023-05-19T13:59:08.186Z,17.10
2023-05-19T14:04:09.807Z,16.92
2023-05-19T14:09:11.673Z,16.76
2023-05-19T14:14:12.842Z,16.38
2023-05-19T14:19:14.070Z,16.44
2023-05-19T14:24:14.882Z,16.56
2023-05-19T14:29:15.998Z,16.61
2023-05-19T14:34:20.111Z,16.26
2023-05-19T14:39:20.934Z,16.21
2023-05-19T14:44:21.758Z,16.06
2023-05-19T14:49:25.683Z,16.02
2023-05-19T14:54:26.493Z,16.44
2023-05-19T14:59:28.802Z,16.64
2023-05-19T15:04:29.828Z,16.52
2023-05-19T15:09:31.013Z,16.44
2023-05-19T15:14:31.823Z,16.26
2023-05-19T15:19:33.002Z,16.27
2023-05-19T15:24:34.018Z,16.20
2023-05-19T15:29:35.102Z,16.27
2023-05-19T15:34:36.095Z,16.31
2023-05-19T15:39:36.998Z,16.16
2023-05-19T15:44:37.952Z,15.97
2023-05-19T15:49:38.956Z,16.04
2023-05-19T15:54:40.071Z,16.09
2023-05-19T15:59:40.899Z,16.00
2023-05-19T16:04:41.671Z,16.06
2023-05-19T16:09:42.781Z,15.91
2023-05-19T16:14:43.587Z,15.84
2023-05-19T16:19:44.972Z,15.75
2023-05-19T16:24:45.798Z,15.75
2023-05-19T16:29:46.695Z,15.82
2023-05-19T16:34:47.477Z,15.87
2023-05-19T16:39:48.382Z,15.65
2023-05-19T16:44:49.286Z,15.67
2023-05-19T16:49:50.652Z,15.74
2023-05-19T16:54:51.518Z,15.53
2023-05-19T16:59:52.604Z,15.49
2023-05-19T17:04:54.545Z,15.54
2023-05-19T17:09:56.034Z,15.56
2023-05-19T17:14:57.077Z,15.67
2023-05-19T17:19:58.151Z,15.50
2023-05-19T17:24:58.947Z,15.53
2023-05-19T17:29:59.762Z,15.40
2023-05-19T17:35:02.648Z,15.46
2023-05-19T17:40:04.327Z,15.59
2023-05-19T17:45:06.816Z,15.39
2023-05-19T17:50:08.884Z,15.38
2023-05-19T17:55:11.148Z,15.37
2023-05-19T18:00:13.076Z,15.27
2023-05-19T18:05:15.035Z,15.28
2023-05-19T18:10:16.814Z,15.28
2023-05-19T18:15:18.437Z,15.27
2023-05-19T18:20:19.613Z,15.15
2023-05-19T18:25:20.468Z,15.23
2023-05-19T18:30:22.575Z,15.25
2023-05-19T18:35:23.465Z,14.96
2023-05-19T18:40:24.470Z,14.99
2023-05-19T18:45:25.281Z,14.75
2023-05-19T18:50:26.311Z,14.64
2023-05-19T18:55:27.138Z,14.52
2023-05-19T19:00:28.386Z,14.60
2023-05-19T19:05:29.638Z,14.46
2023-05-19T19:10:33.686Z,14.22
2023-05-19T19:15:34.950Z,14.15
2023-05-19T19:20:35.887Z,14.10
2023-05-19T19:25:36.882Z,13.94
2023-05-19T19:30:37.719Z,13.85
2023-05-19T19:35:38.573Z,13.66
2023-05-19T19:40:39.545Z,13.49
2023-05-19T19:45:40.850Z,13.38
2023-05-19T19:50:41.834Z,13.38
2023-05-19T19:55:42.665Z,13.29
2023-05-19T20:00:43.526Z,13.13
2023-05-19T20:05:44.358Z,13.13
2023-05-19T20:10:47.236Z,13.08
2023-05-19T20:15:48.155Z,13.03
2023-05-19T20:20:49.143Z,13.03
2023-05-19T20:26:06.662Z,12.97
2023-05-19T20:31:11.614Z,12.89
2023-05-19T20:36:12.469Z,12.84
2023-05-19T20:41:13.857Z,12.79
2023-05-19T20:46:14.779Z,12.80
2023-05-19T20:51:15.973Z,12.76
2023-05-19T20:56:16.783Z,12.84
2023-05-19T21:01:17.672Z,12.93
2023-05-19T21:06:18.552Z,12.95
2023-05-19T21:11:20.345Z,12.99
2023-05-19T21:16:21.703Z,13.03
2023-05-19T21:21:22.953Z,13.01
2023-05-19T21:26:23.824Z,13.02
2023-05-19T21:31:24.782Z,12.91
2023-05-19T21:36:25.948Z,13.02
2023-05-19T21:41:26.778Z,13.05
2023-05-19T21:46:28.366Z,12.99
2023-05-19T21:51:31.263Z,13.08
2023-05-19T21:56:32.090Z,13.08
2023-05-19T22:01:33.019Z,13.04
2023-05-19T22:06:34.092Z,13.06
2023-05-19T22:11:35.110Z,13.12
2023-05-19T22:16:36.024Z,13.21
2023-05-19T22:21:37.019Z,13.11
2023-05-19T22:26:41.702Z,13.11
2023-05-19T22:31:42.580Z,13.09
2023-05-19T22:36:45.206Z,13.05
2023-05-19T22:41:46.042Z,12.99
2023-05-19T22:46:46.874Z,13.00
2023-05-19T22:51:48.479Z,13.01
2023-05-19T22:56:49.448Z,12.99
2023-05-19T23:01:50.271Z,12.92
2023-05-19T23:06:51.401Z,12.90
2023-05-19T23:11:53.128Z,12.93
2023-05-19T23:16:53.934Z,12.94
2023-05-19T23:21:55.134Z,12.97
2023-05-19T23:26:55.990Z,12.82
2023-05-19T23:31:56.923Z,12.85
2023-05-19T23:36:57.739Z,12.73
2023-05-19T23:41:58.586Z,12.72
2023-05-19T23:46:59.458Z,12.72
2023-05-19T23:52:00.515Z,12.72
2023-05-19T23:57:02.159Z,12.66
